sensor_id;sensor_type;location;lat;lon;timestamp;pressure;altitude;pressure_sealevel;temperature;humidity
64078;BME280;51039;49.696;10.808;2023-02-12T00:01:43;100295.38;;;3.11;98.62
64078;BME280;51039;49.696;10.808;2023-02-12T00:04:08;100300.22;;;3.04;98.73
64078;BME280;51039;49.696;10.808;2023-02-12T00:06:33;100296.66;;;3.05;98.79
64078;BME280;51039;49.696;10.808;2023-02-12T00:08:59;100293.09;;;3.06;98.59
64078;BME280;51039;49.696;10.808;2023-02-12T00:11:25;100291.41;;;3.05;98.62
64078;BME280;51039;49.696;10.808;2023-02-12T00:13:54;100291.13;;;2.97;99.28
64078;BME280;51039;49.696;10.808;2023-02-12T00:16:21;100283.88;;;3.01;99.57
64078;BME280;51039;49.696;10.808;2023-02-12T00:18:50;100281.16;;;3.02;99.50
64078;BME280;51039;49.696;10.808;2023-02-12T00:21:17;100285.53;;;3.02;99.76
64078;BME280;51039;49.696;10.808;2023-02-12T00:23:43;100287.44;;;3.00;100.00
64078;BME280;51039;49.696;10.808;2023-02-12T00:26:09;100286.41;;;3.02;99.54
64078;BME280;51039;49.696;10.808;2023-02-12T00:28:36;100289.31;;;2.98;99.48
64078;BME280;51039;49.696;10.808;2023-02-12T00:31:09;100290.81;;;2.89;99.08
64078;BME280;51039;49.696;10.808;2023-02-12T00:33:37;100300.22;;;2.79;98.95
64078;BME280;51039;49.696;10.808;2023-02-12T00:36:03;100293.75;;;2.71;98.76
64078;BME280;51039;49.696;10.808;2023-02-12T00:38:29;100301.50;;;2.60;98.54
64078;BME280;51039;49.696;10.808;2023-02-12T00:40:54;100309.84;;;2.52;98.70
64078;BME280;51039;49.696;10.808;2023-02-12T00:43:20;100315.19;;;2.51;98.42
64078;BME280;51039;49.696;10.808;2023-02-12T00:45:46;100311.84;;;2.49;98.54
64078;BME280;51039;49.696;10.808;2023-02-12T00:48:12;100311.28;;;2.44;98.55
64078;BME280;51039;49.696;10.808;2023-02-12T00:50:38;100307.75;;;2.45;98.33
64078;BME280;51039;49.696;10.808;2023-02-12T00:53:05;100308.78;;;2.42;98.61
64078;BME280;51039;49.696;10.808;2023-02-12T00:55:31;100305.97;;;2.45;98.53
64078;BME280;51039;49.696;10.808;2023-02-12T00:57:57;100314.63;;;2.46;98.54
64078;BME280;51039;49.696;10.808;2023-02-12T01:00:23;100301.47;;;2.47;98.41
64078;BME280;51039;49.696;10.808;2023-02-12T01:02:48;100306.06;;;2.44;99.11
64078;BME280;51039;49.696;10.808;2023-02-12T01:05:14;100305.97;;;2.45;99.30
64078;BME280;51039;49.696;10.808;2023-02-12T01:07:39;100313.81;;;2.45;98.99
64078;BME280;51039;49.696;10.808;2023-02-12T01:10:05;100312.13;;;2.31;99.86
64078;BME280;51039;49.696;10.808;2023-02-12T01:12:32;100300.19;;;2.27;99.78
64078;BME280;51039;49.696;10.808;2023-02-12T01:14:57;100296.84;;;2.25;99.82
64078;BME280;51039;49.696;10.808;2023-02-12T01:17:23;100298.19;;;2.18;100.00
64078;BME280;51039;49.696;10.808;2023-02-12T01:19:48;100308.31;;;2.23;100.00
64078;BME280;51039;49.696;10.808;2023-02-12T01:22:13;100305.53;;;2.26;100.00
64078;BME280;51039;49.696;10.808;2023-02-12T01:24:39;100303.53;;;2.29;100.00
64078;BME280;51039;49.696;10.808;2023-02-12T01:27:04;100303.41;;;2.31;100.00
64078;BME280;51039;49.696;10.808;2023-02-12T01:29:29;100306.66;;;2.34;100.00
64078;BME280;51039;49.696;10.808;2023-02-12T01:31:54;100302.28;;;2.35;100.00
64078;BME280;51039;49.696;10.808;2023-02-12T01:34:20;100302.28;;;2.35;100.00
64078;BME280;51039;49.696;10.808;2023-02-12T01:36:45;100300.19;;;2.27;100.00
64078;BME280;51039;49.696;10.808;2023-02-12T01:39:10;100292.72;;;2.21;100.00
64078;BME280;51039;49.696;10.808;2023-02-12T01:41:38;100300.38;;;2.24;100.00
64078;BME280;51039;49.696;10.808;2023-02-12T01:44:06;100297.97;;;2.21;100.00
64078;BME280;51039;49.696;10.808;2023-02-12T01:46:31;100295.75;;;2.15;100.00
64078;BME280;51039;49.696;10.808;2023-02-12T01:48:57;100297.31;;;2.05;100.00
64078;BME280;51039;49.696;10.808;2023-02-12T01:51:22;100305.19;;;2.18;100.00
64078;BME280;51039;49.696;10.808;2023-02-12T01:53:50;100304.56;;;2.27;100.00
64078;BME280;51039;49.696;10.808;2023-02-12T01:56:19;100305.19;;;2.30;100.00
64078;BME280;51039;49.696;10.808;2023-02-12T01:58:47;100301.13;;;2.26;100.00
64078;BME280;51039;49.696;10.808;2023-02-12T02:01:24;100302.34;;;2.21;100.00
64078;BME280;51039;49.696;10.808;2023-02-12T02:03:54;100296.28;;;2.20;100.00
64078;BME280;51039;49.696;10.808;2023-02-12T02:06:26;100300.69;;;2.20;100.00
64078;BME280;51039;49.696;10.808;2023-02-12T02:08:55;100298.09;;;2.20;99.89
64078;BME280;51039;49.696;10.808;2023-02-12T02:11:21;100293.69;;;2.20;99.74
64078;BME280;51039;49.696;10.808;2023-02-12T02:14:04;100292.41;;;2.13;99.50
64078;BME280;51039;49.696;10.808;2023-02-12T02:16:58;100290.34;;;2.18;99.58
64078;BME280;51039;49.696;10.808;2023-02-12T02:22:19;100305.28;;;2.16;99.43
64078;BME280;51039;49.696;10.808;2023-02-12T02:27:55;100298.03;;;2.07;100.00
64078;BME280;51039;49.696;10.808;2023-02-12T02:30:35;100289.59;;;2.16;99.77
64078;BME280;51039;49.696;10.808;2023-02-12T02:33:11;100289.78;;;2.13;99.83
64078;BME280;51039;49.696;10.808;2023-02-12T02:38:42;100298.88;;;2.07;100.00
64078;BME280;51039;49.696;10.808;2023-02-12T02:43:47;100303.09;;;2.10;100.00
64078;BME280;51039;49.696;10.808;2023-02-12T02:46:26;100301.19;;;2.12;100.00
64078;BME280;51039;49.696;10.808;2023-02-12T02:49:00;100315.59;;;2.05;100.00
64078;BME280;51039;49.696;10.808;2023-02-12T02:51:33;100303.91;;;2.10;100.00
64078;BME280;51039;49.696;10.808;2023-02-12T02:54:25;100303.28;;;2.07;100.00
64078;BME280;51039;49.696;10.808;2023-02-12T02:56:59;100302.53;;;2.05;100.00
64078;BME280;51039;49.696;10.808;2023-02-12T02:59:33;100305.16;;;2.05;100.00
64078;BME280;51039;49.696;10.808;2023-02-12T03:04:49;100303.81;;;2.25;100.00
64078;BME280;51039;49.696;10.808;2023-02-12T03:07:20;100305.06;;;2.19;100.00
64078;BME280;51039;49.696;10.808;2023-02-12T03:09:53;100308.78;;;2.29;100.00
64078;BME280;51039;49.696;10.808;2023-02-12T03:15:13;100312.13;;;2.31;100.00
64078;BME280;51039;49.696;10.808;2023-02-12T03:17:48;100310.00;;;2.36;100.00
64078;BME280;51039;49.696;10.808;2023-02-12T03:20:16;100322.16;;;2.38;100.00
64078;BME280;51039;49.696;10.808;2023-02-12T03:22:46;100317.56;;;2.41;100.00
64078;BME280;51039;49.696;10.808;2023-02-12T03:25:27;100327.22;;;2.41;100.00
64078;BME280;51039;49.696;10.808;2023-02-12T03:28:00;100319.13;;;2.44;100.00
64078;BME280;51039;49.696;10.808;2023-02-12T03:30:30;100319.47;;;2.52;100.00
64078;BME280;51039;49.696;10.808;2023-02-12T03:33:18;100319.25;;;2.55;100.00
64078;BME280;51039;49.696;10.808;2023-02-12T03:38:58;100328.81;;;2.56;100.00
64078;BME280;51039;49.696;10.808;2023-02-12T03:41:39;100323.13;;;2.49;100.00
64078;BME280;51039;49.696;10.808;2023-02-12T03:47:11;100318.94;;;2.47;100.00
64078;BME280;51039;49.696;10.808;2023-02-12T03:49:44;100322.59;;;2.44;100.00
64078;BME280;51039;49.696;10.808;2023-02-12T03:52:17;100329.69;;;2.29;100.00
64078;BME280;51039;49.696;10.808;2023-02-12T03:54:42;100329.97;;;2.12;100.00
64078;BME280;51039;49.696;10.808;2023-02-12T03:57:12;100337.56;;;2.02;100.00
64078;BME280;51039;49.696;10.808;2023-02-12T03:59:42;100332.75;;;2.09;100.00
64078;BME280;51039;49.696;10.808;2023-02-12T04:02:08;100338.16;;;2.06;100.00
64078;BME280;51039;49.696;10.808;2023-02-12T04:04:34;100335.78;;;2.03;100.00
64078;BME280;51039;49.696;10.808;2023-02-12T04:07:00;100338.38;;;2.03;100.00
64078;BME280;51039;49.696;10.808;2023-02-12T04:09:26;100338.28;;;2.04;100.00
64078;BME280;51039;49.696;10.808;2023-02-12T04:11:57;100340.78;;;2.06;100.00
64078;BME280;51039;49.696;10.808;2023-02-12T04:14:47;100338.16;;;2.06;100.00
64078;BME280;51039;49.696;10.808;2023-02-12T04:36:49;100345.50;;;2.01;100.00
64078;BME280;51039;49.696;10.808;2023-02-12T04:39:22;100339.63;;;1.97;100.00
64078;BME280;51039;49.696;10.808;2023-02-12T04:41:51;100348.50;;;1.94;100.00
64078;BME280;51039;49.696;10.808;2023-02-12T04:44:26;100347.56;;;1.95;100.00
64078;BME280;51039;49.696;10.808;2023-02-12T04:46:54;100352.59;;;1.99;100.00
64078;BME280;51039;49.696;10.808;2023-02-12T04:49:21;100360.44;;;1.99;100.00
64078;BME280;51039;49.696;10.808;2023-02-12T04:51:47;100345.41;;;2.02;100.00
64078;BME280;51039;49.696;10.808;2023-02-12T04:54:15;100350.41;;;2.05;100.00
64078;BME280;51039;49.696;10.808;2023-02-12T04:56:42;100349.28;;;2.09;100.00
64078;BME280;51039;49.696;10.808;2023-02-12T04:59:07;100351.97;;;2.08;100.00
64078;BME280;51039;49.696;10.808;2023-02-12T05:01:33;100353.59;;;2.10;100.00
64078;BME280;51039;49.696;10.808;2023-02-12T05:04:00;100359.44;;;2.14;100.00
64078;BME280;51039;49.696;10.808;2023-02-12T05:06:25;100355.69;;;2.18;100.00
64078;BME280;51039;49.696;10.808;2023-02-12T05:08:53;100362.41;;;2.22;100.00
64078;BME280;51039;49.696;10.808;2023-02-12T05:11:19;100356.22;;;2.23;100.00
64078;BME280;51039;49.696;10.808;2023-02-12T05:13:47;100363.78;;;2.28;100.00
64078;BME280;51039;49.696;10.808;2023-02-12T05:16:13;100354.06;;;2.30;100.00
64078;BME280;51039;49.696;10.808;2023-02-12T05:18:38;100363.56;;;2.31;100.00
64078;BME280;51039;49.696;10.808;2023-02-12T05:21:04;100346.31;;;2.28;100.00
64078;BME280;51039;49.696;10.808;2023-02-12T05:23:30;100351.44;;;2.30;100.00
64078;BME280;51039;49.696;10.808;2023-02-12T05:25:58;100360.22;;;2.29;100.00
64078;BME280;51039;49.696;10.808;2023-02-12T05:28:24;100362.81;;;2.29;100.00
64078;BME280;51039;49.696;10.808;2023-02-12T05:30:50;100360.84;;;2.32;100.00
64078;BME280;51039;49.696;10.808;2023-02-12T05:33:15;100364.59;;;2.28;100.00
64078;BME280;51039;49.696;10.808;2023-02-12T05:35:40;100368.78;;;2.31;100.00
64078;BME280;51039;49.696;10.808;2023-02-12T05:38:06;100375.06;;;2.28;100.00
64078;BME280;51039;49.696;10.808;2023-02-12T05:40:31;100372.03;;;2.34;100.00
64078;BME280;51039;49.696;10.808;2023-02-12T05:42:56;100374.56;;;2.36;100.00
64078;BME280;51039;49.696;10.808;2023-02-12T05:45:21;100375.31;;;2.38;100.00
64078;BME280;51039;49.696;10.808;2023-02-12T05:47:51;100371.66;;;2.41;100.00
64078;BME280;51039;49.696;10.808;2023-02-12T05:50:17;100383.69;;;2.43;100.00
64078;BME280;51039;49.696;10.808;2023-02-12T05:52:43;100392.59;;;2.41;100.00
64078;BME280;51039;49.696;10.808;2023-02-12T05:55:08;100391.63;;;2.42;100.00
64078;BME280;51039;49.696;10.808;2023-02-12T05:57:33;100386.41;;;2.42;100.00
64078;BME280;51039;49.696;10.808;2023-02-12T05:59:59;100386.50;;;2.40;100.00
64078;BME280;51039;49.696;10.808;2023-02-12T06:02:25;100388.47;;;2.36;100.00
64078;BME280;51039;49.696;10.808;2023-02-12T06:04:50;100394.91;;;2.45;100.00
64078;BME280;51039;49.696;10.808;2023-02-12T06:07:15;100391.88;;;2.51;100.00
64078;BME280;51039;49.696;10.808;2023-02-12T06:09:41;100394.81;;;2.47;100.00
64078;BME280;51039;49.696;10.808;2023-02-12T06:12:06;100392.19;;;2.47;100.00
64078;BME280;51039;49.696;10.808;2023-02-12T06:14:31;100389.47;;;2.48;100.00
64078;BME280;51039;49.696;10.808;2023-02-12T06:16:58;100393.56;;;2.52;100.00
64078;BME280;51039;49.696;10.808;2023-02-12T06:19:23;100393.44;;;2.54;100.00
64078;BME280;51039;49.696;10.808;2023-02-12T06:21:48;100398.78;;;2.52;100.00
64078;BME280;51039;49.696;10.808;2023-02-12T06:24:14;100405.44;;;2.44;100.00
64078;BME280;51039;49.696;10.808;2023-02-12T06:26:40;100391.22;;;2.48;100.00
64078;BME280;51039;49.696;10.808;2023-02-12T06:29:06;100403.47;;;2.47;100.00
64078;BME280;51039;49.696;10.808;2023-02-12T06:31:32;100409.75;;;2.45;100.00
64078;BME280;51039;49.696;10.808;2023-02-12T06:34:00;100410.69;;;2.44;100.00
64078;BME280;51039;49.696;10.808;2023-02-12T06:36:27;100417.38;;;2.48;100.00
64078;BME280;51039;49.696;10.808;2023-02-12T06:38:53;100413.75;;;2.50;100.00
64078;BME280;51039;49.696;10.808;2023-02-12T06:41:19;100414.78;;;2.48;100.00
64078;BME280;51039;49.696;10.808;2023-02-12T06:43:45;100420.97;;;2.60;100.00
64078;BME280;51039;49.696;10.808;2023-02-12T06:46:10;100421.63;;;2.63;100.00
64078;BME280;51039;49.696;10.808;2023-02-12T06:48:36;100426.44;;;2.69;100.00
64078;BME280;51039;49.696;10.808;2023-02-12T06:51:05;100431.91;;;2.66;100.00
64078;BME280;51039;49.696;10.808;2023-02-12T06:53:32;100422.91;;;2.70;100.00
64078;BME280;51039;49.696;10.808;2023-02-12T06:55:59;100426.44;;;2.69;100.00
64078;BME280;51039;49.696;10.808;2023-02-12T06:58:26;100435.25;;;2.68;100.00
64078;BME280;51039;49.696;10.808;2023-02-12T07:00:51;100434.28;;;2.69;100.00
64078;BME280;51039;49.696;10.808;2023-02-12T07:03:16;100442.13;;;2.69;100.00
64078;BME280;51039;49.696;10.808;2023-02-12T07:05:42;100442.03;;;2.71;100.00
64078;BME280;51039;49.696;10.808;2023-02-12T07:08:07;100447.00;;;2.75;100.00
64078;BME280;51039;49.696;10.808;2023-02-12T07:10:33;100450.03;;;2.82;100.00
64078;BME280;51039;49.696;10.808;2023-02-12T07:12:58;100453.28;;;2.86;100.00
64078;BME280;51039;49.696;10.808;2023-02-12T07:15:23;100450.66;;;2.86;100.00
64078;BME280;51039;49.696;10.808;2023-02-12T07:17:48;100451.31;;;2.89;100.00
64078;BME280;51039;49.696;10.808;2023-02-12T07:20:14;100449.09;;;2.96;100.00
64078;BME280;51039;49.696;10.808;2023-02-12T07:22:39;100450.56;;;3.00;100.00
64078;BME280;51039;49.696;10.808;2023-02-12T07:25:04;100453.63;;;3.07;100.00
64078;BME280;51039;49.696;10.808;2023-02-12T07:27:30;100458.97;;;3.05;100.00
64078;BME280;51039;49.696;10.808;2023-02-12T07:29:55;100454.56;;;3.06;100.00
64078;BME280;51039;49.696;10.808;2023-02-12T07:32:20;100452.81;;;3.06;100.00
64078;BME280;51039;49.696;10.808;2023-02-12T07:34:46;100457.81;;;3.09;100.00
64078;BME280;51039;49.696;10.808;2023-02-12T07:37:11;100466.72;;;3.07;100.00
64078;BME280;51039;49.696;10.808;2023-02-12T07:39:36;100462.59;;;2.90;100.00
64078;BME280;51039;49.696;10.808;2023-02-12T07:42:02;100465.97;;;2.79;100.00
64078;BME280;51039;49.696;10.808;2023-02-12T07:44:27;100470.22;;;2.80;100.00
64078;BME280;51039;49.696;10.808;2023-02-12T07:46:52;100466.28;;;2.87;100.00
64078;BME280;51039;49.696;10.808;2023-02-12T07:49:19;100469.13;;;2.97;100.00
64078;BME280;51039;49.696;10.808;2023-02-12T07:51:45;100471.53;;;3.00;100.00
64078;BME280;51039;49.696;10.808;2023-02-12T07:54:12;100462.66;;;3.03;100.00
64078;BME280;51039;49.696;10.808;2023-02-12T07:56:38;100464.34;;;3.17;100.00
64078;BME280;51039;49.696;10.808;2023-02-12T07:59:06;100470.50;;;3.28;100.00
64078;BME280;51039;49.696;10.808;2023-02-12T08:01:35;100466.03;;;3.43;100.00
64078;BME280;51039;49.696;10.808;2023-02-12T08:04:07;100473.03;;;3.56;100.00
64078;BME280;51039;49.696;10.808;2023-02-12T08:06:38;100466.09;;;3.67;99.90
64078;BME280;51039;49.696;10.808;2023-02-12T08:09:07;100474.28;;;3.76;99.34
64078;BME280;51039;49.696;10.808;2023-02-12T08:11:34;100471.44;;;3.79;99.21
64078;BME280;51039;49.696;10.808;2023-02-12T08:14:00;100474.91;;;3.79;99.11
64078;BME280;51039;49.696;10.808;2023-02-12T08:16:26;100477.84;;;3.74;99.35
64078;BME280;51039;49.696;10.808;2023-02-12T08:18:54;100481.88;;;4.65;100.00
64078;BME280;51039;49.696;10.808;2023-02-12T08:21:21;100476.06;;;4.73;100.00
64078;BME280;51039;49.696;10.808;2023-02-12T08:23:49;100476.75;;;4.64;98.68
64078;BME280;51039;49.696;10.808;2023-02-12T08:26:19;100478.81;;;4.71;97.72
64078;BME280;51039;49.696;10.808;2023-02-12T08:28:54;100482.44;;;4.82;97.15
64078;BME280;51039;49.696;10.808;2023-02-12T08:31:25;100483.25;;;5.06;97.15
64078;BME280;51039;49.696;10.808;2023-02-12T08:33:51;100482.38;;;5.06;95.72
64078;BME280;51039;49.696;10.808;2023-02-12T08:36:19;100484.56;;;5.12;94.55
64078;BME280;51039;49.696;10.808;2023-02-12T08:38:46;100489.97;;;5.33;93.30
64078;BME280;51039;49.696;10.808;2023-02-12T08:41:18;100484.28;;;5.84;93.38
64078;BME280;51039;49.696;10.808;2023-02-12T08:43:46;100483.94;;;6.23;90.77
64078;BME280;51039;49.696;10.808;2023-02-12T08:46:14;100482.66;;;6.61;89.96
64078;BME280;51039;49.696;10.808;2023-02-12T08:48:42;100475.69;;;6.92;86.85
64078;BME280;51039;49.696;10.808;2023-02-12T08:51:09;100474.69;;;6.83;86.85
64078;BME280;51039;49.696;10.808;2023-02-12T08:53:38;100481.31;;;6.66;86.85
64078;BME280;51039;49.696;10.808;2023-02-12T08:56:05;100470.94;;;6.54;87.47
64078;BME280;51039;49.696;10.808;2023-02-12T08:58:32;100472.75;;;6.53;86.87
64078;BME280;51039;49.696;10.808;2023-02-12T09:00:59;100478.28;;;6.39;87.21
64078;BME280;51039;49.696;10.808;2023-02-12T09:03:25;100478.56;;;6.13;88.48
64078;BME280;51039;49.696;10.808;2023-02-12T09:05:50;100484.66;;;5.80;89.82
64078;BME280;51039;49.696;10.808;2023-02-12T09:08:15;100485.38;;;5.93;90.52
64078;BME280;51039;49.696;10.808;2023-02-12T09:10:41;100480.19;;;6.37;89.66
64078;BME280;51039;49.696;10.808;2023-02-12T09:13:08;100478.66;;;6.23;87.88
64078;BME280;51039;49.696;10.808;2023-02-12T09:15:40;100479.81;;;6.53;88.91
64078;BME280;51039;49.696;10.808;2023-02-12T09:18:07;100485.19;;;6.51;87.38
64078;BME280;51039;49.696;10.808;2023-02-12T09:20:36;100488.38;;;6.00;89.74
64078;BME280;51039;49.696;10.808;2023-02-12T09:23:03;100490.25;;;6.43;88.93
64078;BME280;51039;49.696;10.808;2023-02-12T09:25:29;100485.56;;;6.79;87.70
64078;BME280;51039;49.696;10.808;2023-02-12T09:27:55;100493.78;;;6.97;86.44
64078;BME280;51039;49.696;10.808;2023-02-12T09:30:20;100492.03;;;7.07;85.97
64078;BME280;51039;49.696;10.808;2023-02-12T09:32:46;100492.03;;;7.07;86.00
64078;BME280;51039;49.696;10.808;2023-02-12T09:35:12;100483.38;;;7.16;85.41
64078;BME280;51039;49.696;10.808;2023-02-12T09:37:37;100488.34;;;7.61;84.02
64078;BME280;51039;49.696;10.808;2023-02-12T09:40:04;100489.34;;;7.39;84.09
64078;BME280;51039;49.696;10.808;2023-02-12T09:42:38;100492.88;;;7.28;84.05
64078;BME280;51039;49.696;10.808;2023-02-12T09:45:25;100490.41;;;6.95;85.31
64078;BME280;51039;49.696;10.808;2023-02-12T09:50:56;100494.94;;;8.77;78.98
64078;BME280;51039;49.696;10.808;2023-02-12T09:53:25;100493.72;;;9.11;77.17
64078;BME280;51039;49.696;10.808;2023-02-12T09:55:54;100483.81;;;9.13;77.21
64078;BME280;51039;49.696;10.808;2023-02-12T09:58:28;100481.47;;;8.90;77.61
64078;BME280;51039;49.696;10.808;2023-02-12T10:00:57;100487.03;;;8.77;78.68
64078;BME280;51039;49.696;10.808;2023-02-12T10:03:23;100494.81;;;8.59;79.19
64078;BME280;51039;49.696;10.808;2023-02-12T10:05:58;100479.94;;;8.97;78.62
64078;BME280;51039;49.696;10.808;2023-02-12T10:08:33;100482.84;;;8.84;77.67
64078;BME280;51039;49.696;10.808;2023-02-12T10:27:00;100489.41;;;8.20;80.77
64078;BME280;51039;49.696;10.808;2023-02-12T10:29:36;100490.88;;;8.03;81.47
64078;BME280;51039;49.696;10.808;2023-02-12T10:32:19;100491.34;;;8.18;81.06
64078;BME280;51039;49.696;10.808;2023-02-12T10:34:47;100497.19;;;8.12;81.14
64078;BME280;51039;49.696;10.808;2023-02-12T10:37:20;100492.50;;;7.95;81.73
64078;BME280;51039;49.696;10.808;2023-02-12T10:40:34;100491.06;;;7.81;82.70
64078;BME280;51039;49.696;10.808;2023-02-12T10:42:47;100489.84;;;7.33;85.12
64078;BME280;51039;49.696;10.808;2023-02-12T10:45:19;100482.56;;;7.46;85.12
64078;BME280;51039;49.696;10.808;2023-02-12T10:47:49;100493.00;;;7.79;84.36
64078;BME280;51039;49.696;10.808;2023-02-12T10:52:46;100490.47;;;8.49;80.94
64078;BME280;51039;49.696;10.808;2023-02-12T10:55:22;100481.53;;;7.90;84.21
64078;BME280;51039;49.696;10.808;2023-02-12T10:57:49;100484.00;;;7.81;84.56
64078;BME280;51039;49.696;10.808;2023-02-12T11:00:22;100485.78;;;7.50;86.43
64078;BME280;51039;49.696;10.808;2023-02-12T11:05:27;100476.69;;;7.64;86.64
64078;BME280;51039;49.696;10.808;2023-02-12T11:07:54;100473.78;;;7.98;85.36
64078;BME280;51039;49.696;10.808;2023-02-12T11:10:28;100467.72;;;8.17;84.33
64078;BME280;51039;49.696;10.808;2023-02-12T11:12:56;100469.63;;;8.55;82.65
64078;BME280;51039;49.696;10.808;2023-02-12T11:15:24;100469.22;;;8.10;84.19
64078;BME280;51039;49.696;10.808;2023-02-12T11:17:58;100460.09;;;8.23;84.44
64078;BME280;51039;49.696;10.808;2023-02-12T11:20:29;100461.97;;;8.42;83.15
64078;BME280;51039;49.696;10.808;2023-02-12T11:28:51;100460.59;;;8.68;82.82
64078;BME280;51039;49.696;10.808;2023-02-12T11:31:27;100463.22;;;8.68;82.28
64078;BME280;51039;49.696;10.808;2023-02-12T11:34:34;100465.69;;;8.40;83.73
64078;BME280;51039;49.696;10.808;2023-02-12T11:36:44;100460.28;;;8.32;84.07
64078;BME280;51039;49.696;10.808;2023-02-12T11:39:29;100464.97;;;8.28;84.39
64078;BME280;51039;49.696;10.808;2023-02-12T11:41:58;100463.59;;;8.24;84.52
64078;BME280;51039;49.696;10.808;2023-02-12T11:44:33;100457.16;;;8.07;85.57
64078;BME280;51039;49.696;10.808;2023-02-12T11:47:02;100459.63;;;7.99;86.32
64078;BME280;51039;49.696;10.808;2023-02-12T11:49:33;100449.53;;;7.73;87.32
64078;BME280;51039;49.696;10.808;2023-02-12T11:52:03;100459.91;;;7.65;87.66
64078;BME280;51039;49.696;10.808;2023-02-12T11:54:31;100459.03;;;7.55;88.27
64078;BME280;51039;49.696;10.808;2023-02-12T11:57:02;100452.22;;;7.52;88.68
64078;BME280;51039;49.696;10.808;2023-02-12T11:59:33;100451.28;;;7.63;88.58
64078;BME280;51039;49.696;10.808;2023-02-12T12:02:03;100447.88;;;7.72;87.67
64078;BME280;51039;49.696;10.808;2023-02-12T12:04:40;100447.88;;;7.72;87.41
64078;BME280;51039;49.696;10.808;2023-02-12T12:07:15;100448.06;;;7.90;87.29
64078;BME280;51039;49.696;10.808;2023-02-12T12:09:48;100446.59;;;8.07;86.35
64078;BME280;51039;49.696;10.808;2023-02-12T12:20:53;100450.72;;;8.50;84.22
64078;BME280;51039;49.696;10.808;2023-02-12T12:23:36;100447.22;;;8.40;84.73
64078;BME280;51039;49.696;10.808;2023-02-12T12:26:29;100447.34;;;8.38;85.20
64078;BME280;51039;49.696;10.808;2023-02-12T12:29:10;100447.81;;;8.43;84.16
64078;BME280;51039;49.696;10.808;2023-02-12T12:31:46;100449.34;;;8.65;83.43
64078;BME280;51039;49.696;10.808;2023-02-12T12:34:16;100444.47;;;8.51;83.67
64078;BME280;51039;49.696;10.808;2023-02-12T12:50:46;100450.97;;;7.87;85.95
64078;BME280;51039;49.696;10.808;2023-02-12T12:53:23;100447.84;;;8.13;85.49
64078;BME280;51039;49.696;10.808;2023-02-12T13:01:01;100443.63;;;7.60;87.49
64078;BME280;51039;49.696;10.808;2023-02-12T13:07:00;100440.78;;;7.42;88.40
64078;BME280;51039;49.696;10.808;2023-02-12T13:09:50;100437.13;;;7.33;89.12
64078;BME280;51039;49.696;10.808;2023-02-12T13:12:44;100438.41;;;7.39;88.99
64078;BME280;51039;49.696;10.808;2023-02-12T13:20:24;100439.28;;;7.80;86.97
64078;BME280;51039;49.696;10.808;2023-02-12T13:28:25;100444.69;;;8.29;85.48
64078;BME280;51039;49.696;10.808;2023-02-12T13:30:58;100440.53;;;8.36;84.27
64078;BME280;51039;49.696;10.808;2023-02-12T13:33:49;100437.88;;;8.16;84.86
64078;BME280;51039;49.696;10.808;2023-02-12T13:36:15;100435.81;;;8.30;85.18
64078;BME280;51039;49.696;10.808;2023-02-12T13:38:52;100442.31;;;8.25;84.74
64078;BME280;51039;49.696;10.808;2023-02-12T13:41:25;100438.66;;;7.97;85.82
64078;BME280;51039;49.696;10.808;2023-02-12T13:46:25;100436.88;;;8.17;85.26
64078;BME280;51039;49.696;10.808;2023-02-12T13:51:36;100443.31;;;8.34;84.48
64078;BME280;51039;49.696;10.808;2023-02-12T13:56:44;100440.41;;;8.28;84.60
64078;BME280;51039;49.696;10.808;2023-02-12T13:59:37;100435.16;;;8.57;83.88
64078;BME280;51039;49.696;10.808;2023-02-12T14:02:04;100437.63;;;8.49;83.62
64078;BME280;51039;49.696;10.808;2023-02-12T14:04:38;100442.53;;;8.43;83.87
64078;BME280;51039;49.696;10.808;2023-02-12T14:07:10;100441.41;;;8.46;83.12
64078;BME280;51039;49.696;10.808;2023-02-12T14:14:55;100444.47;;;8.61;82.76
64078;BME280;51039;49.696;10.808;2023-02-12T14:20:13;100437.09;;;8.94;81.62
64078;BME280;51039;49.696;10.808;2023-02-12T14:37:58;100436.88;;;8.07;84.01
64078;BME280;51039;49.696;10.808;2023-02-12T14:42:57;100431.97;;;7.53;86.27
64078;BME280;51039;49.696;10.808;2023-02-12T14:45:44;100429.66;;;7.38;86.99
64078;BME280;51039;49.696;10.808;2023-02-12T14:48:09;100434.59;;;7.22;87.40
64078;BME280;51039;49.696;10.808;2023-02-12T14:51:13;100428.22;;;7.24;87.59
64078;BME280;51039;49.696;10.808;2023-02-12T14:54:01;100423.75;;;7.25;87.25
64078;BME280;51039;49.696;10.808;2023-02-12T14:56:31;100424.06;;;7.53;86.66
64078;BME280;51039;49.696;10.808;2023-02-12T14:59:08;100415.13;;;7.44;86.60
64078;BME280;51039;49.696;10.808;2023-02-12T15:01:42;100413.84;;;7.38;86.91
64078;BME280;51039;49.696;10.808;2023-02-12T15:04:15;100411.03;;;7.30;87.47
64078;BME280;51039;49.696;10.808;2023-02-12T15:07:13;100410.88;;;7.22;87.57
64078;BME280;51039;49.696;10.808;2023-02-12T15:09:51;100417.84;;;7.12;88.22
64078;BME280;51039;49.696;10.808;2023-02-12T15:12:33;100409.53;;;7.06;88.83
64078;BME280;51039;49.696;10.808;2023-02-12T15:15:33;100406.44;;;7.01;88.85
64078;BME280;51039;49.696;10.808;2023-02-12T15:23:33;100409.53;;;6.85;89.62
64078;BME280;51039;49.696;10.808;2023-02-12T15:26:11;100412.47;;;6.71;90.04
64078;BME280;51039;49.696;10.808;2023-02-12T15:28:46;100405.78;;;6.67;90.27
64078;BME280;51039;49.696;10.808;2023-02-12T15:31:15;100404.75;;;6.58;90.66
64078;BME280;51039;49.696;10.808;2023-02-12T15:33:45;100408.25;;;6.47;91.21